createdAt,value
2024-02-19T00:00:37.794Z,96190.28
2024-02-19T00:04:20.793Z,96184.72
2024-02-19T00:08:05.656Z,96161.81
2024-02-19T00:11:48.607Z,96174.41
2024-02-19T00:15:32.195Z,96166.88
2024-02-19T00:19:15.415Z,96165.56
2024-02-19T00:22:58.310Z,96169.97
2024-02-19T00:26:42.503Z,96157.22
2024-02-19T00:30:25.471Z,96157.88
2024-02-19T00:34:08.818Z,96166.06
2024-02-19T00:37:52.473Z,96157.06
2024-02-19T00:41:35.822Z,96146.75
2024-02-19T00:45:20.059Z,96166.88
2024-02-19T00:49:03.238Z,96149.38
2024-02-19T00:52:46.120Z,96154.28
2024-02-19T00:56:29.045Z,96143.00
2024-02-19T01:00:12.528Z,96160.19
2024-02-19T01:03:56.794Z,96155.41
2024-02-19T01:07:39.800Z,96143.16
2024-02-19T01:11:22.765Z,96153.28
2024-02-19T01:15:06.583Z,96155.56
2024-02-19T01:18:49.909Z,96173.56
2024-02-19T01:22:34.545Z,96165.72
2024-02-19T01:26:20.428Z,96149.53
2024-02-19T01:30:03.303Z,96141.84
2024-02-19T01:33:46.269Z,96162.13
2024-02-19T01:37:29.132Z,96152.31
2024-02-19T01:41:13.375Z,96155.25
2024-02-19T01:44:56.298Z,96183.34
2024-02-19T01:48:39.657Z,96169.94
2024-02-19T01:52:22.855Z,96148.22
2024-02-19T01:56:06.937Z,96156.22
2024-02-19T01:59:51.437Z,96157.84
2024-02-19T02:03:36.301Z,96147.72
2024-02-19T02:07:19.942Z,96150.66
2024-02-19T02:11:02.857Z,96155.22
2024-02-19T02:14:45.686Z,96157.69
2024-02-19T02:18:31.299Z,96152.28
2024-02-19T02:22:14.879Z,96148.38
2024-02-19T02:25:58.393Z,96150.00
2024-02-19T02:29:42.610Z,96151.47
2024-02-19T02:33:25.633Z,96142.81
2024-02-19T02:37:08.622Z,96149.00
2024-02-19T02:40:51.718Z,96155.22
2024-02-19T02:44:34.676Z,96153.88
2024-02-19T02:48:19.333Z,96159.91
2024-02-19T02:52:02.312Z,96161.88
2024-02-19T02:55:45.301Z,96147.31
2024-02-19T02:59:28.201Z,96155.19
2024-02-19T03:03:11.984Z,96153.53
2024-02-19T03:06:56.278Z,96150.09
2024-02-19T03:10:39.203Z,96157.47
2024-02-19T03:14:22.204Z,96146.50
2024-02-19T03:18:05.826Z,96149.09
2024-02-19T03:21:48.899Z,96154.31
2024-02-19T03:25:33.336Z,96146.97
2024-02-19T03:29:16.447Z,96155.63
2024-02-19T03:32:59.489Z,96146.00
2024-02-19T03:36:46.359Z,96153.19
2024-02-19T03:40:29.459Z,96168.69
2024-02-19T03:44:13.708Z,96165.09
2024-02-19T03:47:56.743Z,96163.00
2024-02-19T03:51:39.679Z,96156.47
2024-02-19T03:55:22.690Z,96168.22
2024-02-19T03:59:06.254Z,96161.03
2024-02-19T04:02:50.498Z,96170.53
2024-02-19T04:06:33.417Z,96166.59
2024-02-19T04:10:16.522Z,96169.88
2024-02-19T04:13:59.503Z,96169.22
2024-02-19T04:17:42.528Z,96183.50
2024-02-19T04:21:26.787Z,96176.09
2024-02-19T04:25:10.482Z,96178.56
2024-02-19T04:28:54.607Z,96170.38
2024-02-19T04:32:38.607Z,96168.41
2024-02-19T04:36:21.507Z,96159.91
2024-02-19T04:40:08.559Z,96166.59
2024-02-19T04:43:51.520Z,96170.38
2024-02-19T04:47:34.827Z,96156.97
2024-02-19T04:51:17.782Z,96149.94
2024-02-19T04:55:00.825Z,96147.97
2024-02-19T04:58:45.069Z,96146.34
2024-02-19T05:02:27.956Z,96154.03
2024-02-19T05:06:10.946Z,96150.59
2024-02-19T05:09:53.910Z,96139.16
2024-02-19T05:13:37.622Z,96142.47
2024-02-19T05:17:22.540Z,96141.13
2024-02-19T05:21:07.385Z,96142.75
2024-02-19T05:24:50.380Z,96144.91
2024-02-19T05:28:33.822Z,96131.84
2024-02-19T05:32:20.024Z,96137.91
2024-02-19T05:36:04.930Z,96139.88
2024-02-19T05:39:47.890Z,96150.00
2024-02-19T05:43:30.973Z,96147.38
2024-02-19T05:47:13.950Z,96151.63
2024-02-19T05:50:57.016Z,96148.03
2024-02-19T05:54:41.282Z,96138.91
2024-02-19T05:58:24.155Z,96156.88
2024-02-19T06:02:07.703Z,96149.69
2024-02-19T06:05:50.716Z,96171.44
2024-02-19T06:09:33.666Z,96147.06
2024-02-19T06:13:17.978Z,96151.00
2024-02-19T06:17:01.001Z,96163.09
2024-02-19T06:20:43.914Z,96163.09
2024-02-19T06:24:26.822Z,96166.03
2024-02-19T06:28:09.834Z,96178.13
2024-02-19T06:31:55.755Z,96169.47
2024-02-19T06:35:38.698Z,96171.44
2024-02-19T06:39:22.236Z,96187.63
2024-02-19T06:43:05.689Z,96196.13
2024-02-19T06:46:50.039Z,96196.78
2024-02-19T06:50:34.399Z,96189.56
2024-02-19T06:54:17.358Z,96193.81
2024-02-19T06:58:00.271Z,96203.31
2024-02-19T07:01:43.257Z,96208.56
2024-02-19T07:05:26.453Z,96205.28
2024-02-19T07:09:10.995Z,96209.88
2024-02-19T07:12:54.007Z,96209.59
2024-02-19T07:16:36.877Z,96208.44
2024-02-19T07:20:20.200Z,96209.59
2024-02-19T07:24:03.750Z,96216.47
2024-02-19T07:27:50.945Z,96222.84
2024-02-19T07:31:33.992Z,96222.03
2024-02-19T07:35:17.298Z,96215.97
2024-02-19T07:39:00.253Z,96219.41
2024-02-19T07:42:43.154Z,96217.75
2024-02-19T07:46:27.631Z,96234.94
2024-02-19T07:50:11.400Z,96225.94
2024-02-19T07:53:54.384Z,96238.06
2024-02-19T07:57:37.442Z,96225.94
2024-02-19T08:01:20.498Z,96249.34
2024-02-19T08:05:05.409Z,96245.25
2024-02-19T08:08:48.685Z,96248.19
2024-02-19T08:12:36.006Z,96237.72
2024-02-19T08:16:20.218Z,96250.66
2024-02-19T08:20:05.652Z,96250.31
2024-02-19T08:23:48.665Z,96242.78
2024-02-19T08:27:31.599Z,96240.00
2024-02-19T08:31:14.637Z,96241.97
2024-02-19T08:34:57.769Z,96242.63
2024-02-19T08:38:42.175Z,96252.63
2024-02-19T08:42:25.247Z,96250.16
2024-02-19T08:46:08.253Z,96270.97
2024-02-19T08:49:51.477Z,96283.25
2024-02-19T08:53:34.446Z,96271.47
2024-02-19T08:57:18.826Z,96287.31
2024-02-19T09:01:02.622Z,96293.03
2024-02-19T09:04:46.846Z,96283.88
2024-02-19T09:08:29.953Z,96287.47
2024-02-19T09:12:13.358Z,96301.22
2024-02-19T09:15:57.646Z,96287.81
2024-02-19T09:19:40.748Z,96292.38
2024-02-19T09:23:23.640Z,96304.53
2024-02-19T09:27:06.763Z,96305.66
2024-02-19T09:30:49.612Z,96313.03
2024-02-19T09:34:35.373Z,96301.22
2024-02-19T09:38:18.443Z,96295.84
2024-02-19T09:42:01.442Z,96300.25
2024-02-19T09:45:44.733Z,96314.19
2024-02-19T09:49:29.713Z,96328.13
2024-02-19T09:53:19.895Z,96311.09
2024-02-19T09:57:03.309Z,96322.53
2024-02-19T10:00:46.316Z,96331.53
2024-02-19T10:04:29.615Z,96322.22
2024-02-19T10:08:15.307Z,96321.56
2024-02-19T10:11:58.893Z,96322.84
2024-02-19T10:15:41.967Z,96332.66
2024-02-19T10:19:26.769Z,96334.78
2024-02-19T10:23:09.699Z,96337.91
2024-02-19T10:26:54.006Z,96317.59
2024-02-19T10:30:37.417Z,96318.28
2024-02-19T10:34:20.439Z,96323.19
2024-02-19T10:38:03.377Z,96327.75
2024-02-19T10:41:46.496Z,96322.34
2024-02-19T10:45:32.147Z,96324.50
2024-02-19T10:49:20.628Z,96324.50
2024-02-19T10:53:06.662Z,96321.88
2024-02-19T10:56:49.724Z,96340.56
2024-02-19T11:00:35.251Z,96325.28
2024-02-19T11:04:24.455Z,96334.00
2024-02-19T11:08:19.729Z,96334.19
2024-02-19T11:12:03.709Z,96328.63
2024-02-19T11:15:48.419Z,96334.31
2024-02-19T11:19:37.840Z,96316.31
2024-02-19T11:23:21.684Z,96341.88
2024-02-19T11:27:05.650Z,96322.84
2024-02-19T11:31:02.095Z,96331.38
2024-02-19T11:34:45.076Z,96322.34
2024-02-19T11:38:30.662Z,96339.91
2024-02-19T11:42:16.359Z,96321.53
2024-02-19T11:46:01.020Z,96327.28
2024-02-19T11:49:44.396Z,96329.75
2024-02-19T11:53:27.580Z,96311.06
2024-02-19T11:57:11.417Z,96315.81
2024-02-19T12:00:54.475Z,96313.13
2024-02-19T12:04:40.502Z,96330.31
2024-02-19T12:08:23.804Z,96320.22
2024-02-19T12:12:07.430Z,96305.50
2024-02-19T12:15:51.536Z,96296.78
2024-02-19T12:19:35.214Z,96297.28
2024-02-19T12:23:19.689Z,96281.03
2024-02-19T12:27:02.956Z,96298.56
2024-02-19T12:30:45.946Z,96288.81
2024-02-19T12:34:29.170Z,96285.25
2024-02-19T12:38:12.180Z,96268.69
2024-02-19T12:41:56.507Z,96280.78
2024-02-19T12:45:39.608Z,96283.69
2024-02-19T12:49:23.357Z,96276.75
2024-02-19T12:53:06.551Z,96283.91
2024-02-19T12:56:50.246Z,96277.06
2024-02-19T13:00:35.092Z,96281.94
2024-02-19T13:04:18.026Z,96276.56
2024-02-19T13:08:01.074Z,96265.03
2024-02-19T13:11:45.170Z,96273.94
2024-02-19T13:15:28.260Z,96291.41
2024-02-19T13:19:13.670Z,96280.22
2024-02-19T13:22:56.833Z,96271.91
2024-02-19T13:26:40.260Z,96281.53
2024-02-19T13:30:24.301Z,96281.53
2024-02-19T13:34:07.904Z,96302.69
2024-02-19T13:37:52.374Z,96286.81
2024-02-19T13:41:35.363Z,96270.13
2024-02-19T13:45:24.554Z,96266.03
2024-02-19T13:49:08.123Z,96266.66
2024-02-19T13:52:52.978Z,96264.34
2024-02-19T13:56:36.155Z,96261.38
2024-02-19T14:00:19.634Z,96248.38
2024-02-19T14:04:02.959Z,96252.84
2024-02-19T14:07:48.806Z,96252.78
2024-02-19T14:11:34.077Z,96243.72
2024-02-19T14:15:17.212Z,96256.84
2024-02-19T14:19:01.268Z,96249.97
2024-02-19T14:22:44.530Z,96240.63
2024-02-19T14:26:29.795Z,96253.91
2024-02-19T14:30:15.663Z,96257.22
2024-02-19T14:33:58.744Z,96241.22
2024-02-19T14:37:42.284Z,96263.25
2024-02-19T14:41:25.241Z,96271.88
2024-02-19T14:45:09.034Z,96284.09
2024-02-19T14:48:53.703Z,96286.44
2024-02-19T14:52:37.121Z,96288.09
2024-02-19T14:56:20.104Z,96300.75
2024-02-19T15:00:08.984Z,96284.88
2024-02-19T15:03:53.434Z,96285.19
2024-02-19T15:07:37.218Z,96278.66
2024-02-19T15:11:20.320Z,96273.41
2024-02-19T15:15:03.363Z,96284.84
2024-02-19T15:18:46.432Z,96296.03
2024-02-19T15:22:30.854Z,96296.97
2024-02-19T15:26:18.884Z,96283.88
2024-02-19T15:30:01.947Z,96300.94
2024-02-19T15:33:45.190Z,96300.91
2024-02-19T15:37:28.240Z,96301.41
2024-02-19T15:41:15.486Z,96294.69
2024-02-19T15:44:58.637Z,96314.00
2024-02-19T15:48:41.646Z,96291.41
2024-02-19T15:52:24.653Z,96296.00
2024-02-19T15:56:08.176Z,96297.31
2024-02-19T15:59:52.554Z,96305.31
2024-02-19T16:03:37.355Z,96306.47
2024-02-19T16:07:23.453Z,96313.19
2024-02-19T16:11:09.376Z,96307.78
2024-02-19T16:14:53.941Z,96311.19
2024-02-19T16:18:37.629Z,96312.00
2024-02-19T16:22:21.182Z,96309.31
2024-02-19T16:26:07.073Z,96312.59
2024-02-19T16:29:50.010Z,96321.78
2024-02-19T16:33:35.626Z,96322.91
2024-02-19T16:37:18.670Z,96302.78
2024-02-19T16:41:01.682Z,96293.13
2024-02-19T16:44:45.069Z,96304.09
2024-02-19T16:48:28.224Z,96299.50
2024-02-19T16:52:13.610Z,96305.06
2024-02-19T16:55:56.667Z,96304.09
2024-02-19T16:59:40.025Z,96305.22
2024-02-19T17:03:22.951Z,96301.13
2024-02-19T17:07:07.212Z,96309.63
2024-02-19T17:10:53.357Z,96316.00
2024-02-19T17:14:36.300Z,96310.63
2024-02-19T17:18:19.487Z,96307.19
2024-02-19T17:22:02.746Z,96309.34
2024-02-19T17:25:45.726Z,96300.50
2024-02-19T17:29:30.413Z,96292.69
2024-02-19T17:33:13.552Z,96293.03
2024-02-19T17:36:57.543Z,96292.06
2024-02-19T17:40:40.562Z,96291.41
2024-02-19T17:44:24.233Z,96286.16
2024-02-19T17:48:12.351Z,96296.63
2024-02-19T17:51:57.020Z,96283.22
2024-02-19T17:55:41.112Z,96284.22
2024-02-19T17:59:24.161Z,96284.53
2024-02-19T18:03:08.664Z,96284.88
2024-02-19T18:06:52.880Z,96280.78
2024-02-19T18:10:35.860Z,96270.47
2024-02-19T18:14:18.895Z,96267.19
2024-02-19T18:18:04.224Z,96263.91
2024-02-19T18:21:48.839Z,96262.94
2024-02-19T18:25:31.928Z,96256.06
2024-02-19T18:29:18.210Z,96257.69
2024-02-19T18:33:02.385Z,96256.06
2024-02-19T18:36:45.729Z,96252.63
2024-02-19T18:40:30.435Z,96247.88
2024-02-19T18:44:14.715Z,96261.94
2024-02-19T18:47:57.985Z,96260.31
2024-02-19T18:51:42.763Z,96255.41
2024-02-19T18:55:25.824Z,96259.97
2024-02-19T18:59:10.521Z,96248.84
2024-02-19T19:02:58.578Z,96248.19
2024-02-19T19:06:41.748Z,96230.84
2024-02-19T19:10:25.218Z,96239.34
2024-02-19T19:14:10.990Z,96238.22
2024-02-19T19:17:55.535Z,96230.03
2024-02-19T19:21:38.981Z,96229.84
2024-02-19T19:25:22.279Z,96234.75
2024-02-19T19:29:05.493Z,96226.91
2024-02-19T19:32:48.517Z,96223.97
2024-02-19T19:36:32.996Z,96226.25
2024-02-19T19:40:17.161Z,96223.63
2024-02-19T19:44:02.517Z,96216.25
2024-02-19T19:47:45.530Z,96216.44
2024-02-19T19:51:28.380Z,96207.28
2024-02-19T19:55:12.702Z,96213.66
2024-02-19T19:58:58.657Z,96208.91
2024-02-19T20:02:44.784Z,96205.81
2024-02-19T20:06:28.700Z,96205.47
2024-02-19T20:10:15.123Z,96213.84
2024-02-19T20:13:58.198Z,96219.41
2024-02-19T20:17:41.389Z,96225.28
2024-02-19T20:21:25.340Z,96224.31
2024-02-19T20:25:09.282Z,96225.94
2024-02-19T20:28:53.703Z,96223.16
2024-02-19T20:32:36.701Z,96220.06
2024-02-19T20:36:21.207Z,96223.00
2024-02-19T20:40:05.973Z,96214.81
2024-02-19T20:43:48.910Z,96227.91
2024-02-19T20:47:33.322Z,96229.53
2024-02-19T20:51:16.766Z,96219.41
2024-02-19T20:54:59.697Z,96216.78
2024-02-19T20:58:42.664Z,96223.31
2024-02-19T21:02:25.827Z,96217.91
2024-02-19T21:06:11.282Z,96220.69
2024-02-19T21:09:58.236Z,96214.66
2024-02-19T21:13:41.327Z,96213.84
2024-02-19T21:17:29.076Z,96221.69
2024-02-19T21:21:18.078Z,96216.78
2024-02-19T21:25:11.675Z,96218.75
2024-02-19T21:28:54.665Z,96223.66
2024-02-19T21:32:37.591Z,96206.63
2024-02-19T21:36:21.882Z,96218.56
2024-02-19T21:40:05.944Z,96204.84
2024-02-19T21:43:48.854Z,96204.00
2024-02-19T21:47:38.065Z,96194.84
2024-02-19T21:51:24.296Z,96199.44
2024-02-19T21:55:08.037Z,96190.28
2024-02-19T21:58:51.402Z,96180.13
2024-02-19T22:02:34.567Z,96180.94
2024-02-19T22:06:17.638Z,96180.09
2024-02-19T22:10:03.508Z,96176.22
2024-02-19T22:13:46.718Z,96173.91
2024-02-19T22:17:30.224Z,96173.59
2024-02-19T22:21:13.199Z,96171.47
2024-02-19T22:24:56.594Z,96166.72
2024-02-19T22:28:41.211Z,96158.84
2024-02-19T22:32:26.072Z,96159.66
2024-02-19T22:36:09.293Z,96141.50
2024-02-19T22:39:53.489Z,96145.09
2024-02-19T22:43:36.818Z,96140.50
2024-02-19T22:47:21.133Z,96145.75
2024-02-19T22:51:04.142Z,96146.56
2024-02-19T22:54:49.085Z,96141.66
2024-02-19T22:58:34.878Z,96140.50
2024-02-19T23:02:18.543Z,96137.72
2024-02-19T23:06:03.068Z,96145.59
2024-02-19T23:09:46.170Z,96135.94
2024-02-19T23:13:33.300Z,96139.38
2024-02-19T23:17:16.887Z,96139.84
2024-02-19T23:21:00.246Z,96134.94
2024-02-19T23:24:44.969Z,96133.63
2024-02-19T23:28:27.887Z,96128.41
2024-02-19T23:32:10.937Z,96138.88
2024-02-19T23:35:53.880Z,96132.34
2024-02-19T23:39:39.150Z,96139.88
2024-02-19T23:43:24.217Z,96133.34
2024-02-19T23:47:09.008Z,96132.50
2024-02-19T23:50:52.420Z,96131.03
2024-02-19T23:54:40.690Z,96121.88
2024-02-19T23:58:26.560Z,96116.31
